sensor_id;sensor_type;location;lat;lon;timestamp;temperature;humidity
3190;DHT22;1606;51.946;10.558;2023-05-07T00:00:24;13.70;99.90
3190;DHT22;1606;51.946;10.558;2023-05-07T00:02:52;13.70;99.90
3190;DHT22;1606;51.946;10.558;2023-05-07T00:05:20;13.60;99.90
3190;DHT22;1606;51.946;10.558;2023-05-07T00:07:49;13.60;99.90
3190;DHT22;1606;51.946;10.558;2023-05-07T00:10:19;13.50;99.90
3190;DHT22;1606;51.946;10.558;2023-05-07T00:12:47;13.70;99.90
3190;DHT22;1606;51.946;10.558;2023-05-07T00:15:15;13.50;99.90
3190;DHT22;1606;51.946;10.558;2023-05-07T00:17:42;13.40;99.90
3190;DHT22;1606;51.946;10.558;2023-05-07T00:20:11;13.60;99.90
3190;DHT22;1606;51.946;10.558;2023-05-07T00:22:39;13.60;99.90
3190;DHT22;1606;51.946;10.558;2023-05-07T00:25:08;13.70;99.90
3190;DHT22;1606;51.946;10.558;2023-05-07T00:27:36;13.70;99.90
3190;DHT22;1606;51.946;10.558;2023-05-07T00:30:05;13.50;99.90
3190;DHT22;1606;51.946;10.558;2023-05-07T00:32:34;13.40;99.90
3190;DHT22;1606;51.946;10.558;2023-05-07T00:35:03;13.20;99.90
3190;DHT22;1606;51.946;10.558;2023-05-07T00:37:31;13.30;99.90
3190;DHT22;1606;51.946;10.558;2023-05-07T00:39:59;13.20;99.90
3190;DHT22;1606;51.946;10.558;2023-05-07T00:42:28;13.10;99.90
3190;DHT22;1606;51.946;10.558;2023-05-07T00:44:56;13.30;99.90
3190;DHT22;1606;51.946;10.558;2023-05-07T00:47:25;13.20;99.90
3190;DHT22;1606;51.946;10.558;2023-05-07T00:49:53;13.30;99.90
3190;DHT22;1606;51.946;10.558;2023-05-07T00:52:21;13.30;99.90
3190;DHT22;1606;51.946;10.558;2023-05-07T00:54:51;13.50;99.90
3190;DHT22;1606;51.946;10.558;2023-05-07T00:57:20;13.50;99.90
3190;DHT22;1606;51.946;10.558;2023-05-07T00:59:51;13.50;99.90
3190;DHT22;1606;51.946;10.558;2023-05-07T01:02:19;13.20;99.90
3190;DHT22;1606;51.946;10.558;2023-05-07T01:04:47;13.30;99.90
3190;DHT22;1606;51.946;10.558;2023-05-07T01:07:15;13.50;99.90
3190;DHT22;1606;51.946;10.558;2023-05-07T01:09:43;13.60;99.90
3190;DHT22;1606;51.946;10.558;2023-05-07T01:12:11;13.50;99.90
3190;DHT22;1606;51.946;10.558;2023-05-07T01:14:39;13.20;99.90
3190;DHT22;1606;51.946;10.558;2023-05-07T01:17:08;13.40;99.90
3190;DHT22;1606;51.946;10.558;2023-05-07T01:19:36;13.30;99.90
3190;DHT22;1606;51.946;10.558;2023-05-07T01:22:10;13.40;99.90
3190;DHT22;1606;51.946;10.558;2023-05-07T01:24:39;13.30;99.90
3190;DHT22;1606;51.946;10.558;2023-05-07T01:27:07;13.40;99.90
3190;DHT22;1606;51.946;10.558;2023-05-07T01:29:35;13.40;99.90
3190;DHT22;1606;51.946;10.558;2023-05-07T01:32:03;13.30;99.90
3190;DHT22;1606;51.946;10.558;2023-05-07T01:34:35;13.50;99.90
3190;DHT22;1606;51.946;10.558;2023-05-07T01:37:03;13.40;99.90
3190;DHT22;1606;51.946;10.558;2023-05-07T01:39:32;13.20;99.90
3190;DHT22;1606;51.946;10.558;2023-05-07T01:42:02;13.20;99.90
3190;DHT22;1606;51.946;10.558;2023-05-07T01:44:29;13.20;99.90
3190;DHT22;1606;51.946;10.558;2023-05-07T01:46:58;12.90;99.90
3190;DHT22;1606;51.946;10.558;2023-05-07T01:49:26;12.90;99.90
3190;DHT22;1606;51.946;10.558;2023-05-07T01:51:54;13.00;99.90
3190;DHT22;1606;51.946;10.558;2023-05-07T01:54:25;12.80;99.90
3190;DHT22;1606;51.946;10.558;2023-05-07T01:56:56;13.00;99.90
3190;DHT22;1606;51.946;10.558;2023-05-07T01:59:25;13.00;99.90
3190;DHT22;1606;51.946;10.558;2023-05-07T02:01:53;13.20;99.90
3190;DHT22;1606;51.946;10.558;2023-05-07T02:04:20;13.20;99.90
3190;DHT22;1606;51.946;10.558;2023-05-07T02:06:48;13.10;99.90
3190;DHT22;1606;51.946;10.558;2023-05-07T02:09:16;13.00;99.90
3190;DHT22;1606;51.946;10.558;2023-05-07T02:11:44;13.10;99.90
3190;DHT22;1606;51.946;10.558;2023-05-07T02:14:12;12.80;99.90
3190;DHT22;1606;51.946;10.558;2023-05-07T02:16:41;13.00;99.90
3190;DHT22;1606;51.946;10.558;2023-05-07T02:19:09;12.90;99.90
3190;DHT22;1606;51.946;10.558;2023-05-07T02:21:36;13.00;99.90
3190;DHT22;1606;51.946;10.558;2023-05-07T02:24:05;13.10;99.90
3190;DHT22;1606;51.946;10.558;2023-05-07T02:26:32;13.00;99.90
3190;DHT22;1606;51.946;10.558;2023-05-07T02:29:00;13.10;99.90
3190;DHT22;1606;51.946;10.558;2023-05-07T02:31:28;13.00;99.90
3190;DHT22;1606;51.946;10.558;2023-05-07T02:33:57;13.00;99.90
3190;DHT22;1606;51.946;10.558;2023-05-07T02:36:25;13.00;99.90
3190;DHT22;1606;51.946;10.558;2023-05-07T02:38:53;13.00;99.90
3190;DHT22;1606;51.946;10.558;2023-05-07T02:41:21;12.90;99.90
3190;DHT22;1606;51.946;10.558;2023-05-07T02:43:49;12.90;99.90
3190;DHT22;1606;51.946;10.558;2023-05-07T02:46:17;13.00;99.90
3190;DHT22;1606;51.946;10.558;2023-05-07T02:48:45;13.10;99.90
3190;DHT22;1606;51.946;10.558;2023-05-07T02:51:14;12.80;99.90
3190;DHT22;1606;51.946;10.558;2023-05-07T02:53:41;12.80;99.90
3190;DHT22;1606;51.946;10.558;2023-05-07T02:56:09;12.90;99.90
3190;DHT22;1606;51.946;10.558;2023-05-07T02:58:37;12.90;99.90
3190;DHT22;1606;51.946;10.558;2023-05-07T03:01:05;13.10;99.90
3190;DHT22;1606;51.946;10.558;2023-05-07T03:03:33;13.10;99.90
3190;DHT22;1606;51.946;10.558;2023-05-07T03:06:01;13.10;99.90
3190;DHT22;1606;51.946;10.558;2023-05-07T03:08:30;13.10;99.90
3190;DHT22;1606;51.946;10.558;2023-05-07T03:10:58;13.10;99.90
3190;DHT22;1606;51.946;10.558;2023-05-07T03:13:26;13.20;99.90
3190;DHT22;1606;51.946;10.558;2023-05-07T03:15:54;13.20;99.90
3190;DHT22;1606;51.946;10.558;2023-05-07T03:18:22;13.00;99.90
3190;DHT22;1606;51.946;10.558;2023-05-07T03:20:51;13.00;99.90
3190;DHT22;1606;51.946;10.558;2023-05-07T03:23:19;13.20;99.90
3190;DHT22;1606;51.946;10.558;2023-05-07T03:25:51;13.00;99.90
3190;DHT22;1606;51.946;10.558;2023-05-07T03:28:19;13.00;99.90
3190;DHT22;1606;51.946;10.558;2023-05-07T03:30:47;13.00;99.90
3190;DHT22;1606;51.946;10.558;2023-05-07T03:33:14;13.00;99.90
3190;DHT22;1606;51.946;10.558;2023-05-07T03:35:44;12.90;99.90
3190;DHT22;1606;51.946;10.558;2023-05-07T03:38:11;12.90;99.90
3190;DHT22;1606;51.946;10.558;2023-05-07T03:40:39;12.90;99.90
3190;DHT22;1606;51.946;10.558;2023-05-07T03:43:08;12.90;99.90
3190;DHT22;1606;51.946;10.558;2023-05-07T03:45:36;12.90;99.90
3190;DHT22;1606;51.946;10.558;2023-05-07T03:48:04;12.90;99.90
3190;DHT22;1606;51.946;10.558;2023-05-07T03:50:32;12.80;99.90
3190;DHT22;1606;51.946;10.558;2023-05-07T03:53:00;12.80;99.90
3190;DHT22;1606;51.946;10.558;2023-05-07T03:55:27;12.70;99.90
3190;DHT22;1606;51.946;10.558;2023-05-07T03:57:56;12.50;99.90
3190;DHT22;1606;51.946;10.558;2023-05-07T04:00:25;12.30;99.90
3190;DHT22;1606;51.946;10.558;2023-05-07T04:02:52;12.20;99.90
3190;DHT22;1606;51.946;10.558;2023-05-07T04:05:20;12.30;99.90
3190;DHT22;1606;51.946;10.558;2023-05-07T04:07:48;12.60;99.90
3190;DHT22;1606;51.946;10.558;2023-05-07T04:10:16;12.50;99.90
3190;DHT22;1606;51.946;10.558;2023-05-07T04:12:44;12.40;99.90
3190;DHT22;1606;51.946;10.558;2023-05-07T04:15:12;12.40;99.90
3190;DHT22;1606;51.946;10.558;2023-05-07T04:17:41;12.50;99.90
3190;DHT22;1606;51.946;10.558;2023-05-07T04:20:10;12.50;99.90
3190;DHT22;1606;51.946;10.558;2023-05-07T04:22:38;12.50;99.90
3190;DHT22;1606;51.946;10.558;2023-05-07T04:25:07;12.60;99.90
3190;DHT22;1606;51.946;10.558;2023-05-07T04:27:36;12.50;99.90
3190;DHT22;1606;51.946;10.558;2023-05-07T04:30:06;12.50;99.90
3190;DHT22;1606;51.946;10.558;2023-05-07T04:32:34;12.50;99.90
3190;DHT22;1606;51.946;10.558;2023-05-07T04:35:05;12.60;99.90
3190;DHT22;1606;51.946;10.558;2023-05-07T04:37:33;12.50;99.90
3190;DHT22;1606;51.946;10.558;2023-05-07T04:40:01;12.60;99.90
3190;DHT22;1606;51.946;10.558;2023-05-07T04:42:30;12.70;99.90
3190;DHT22;1606;51.946;10.558;2023-05-07T04:44:58;12.70;99.90
3190;DHT22;1606;51.946;10.558;2023-05-07T04:47:26;12.60;99.90
3190;DHT22;1606;51.946;10.558;2023-05-07T04:49:54;12.60;99.90
3190;DHT22;1606;51.946;10.558;2023-05-07T04:52:23;12.40;99.90
3190;DHT22;1606;51.946;10.558;2023-05-07T04:54:53;12.40;99.90
3190;DHT22;1606;51.946;10.558;2023-05-07T04:57:20;12.40;99.90
3190;DHT22;1606;51.946;10.558;2023-05-07T04:59:48;12.50;99.90
3190;DHT22;1606;51.946;10.558;2023-05-07T05:02:16;12.50;99.90
3190;DHT22;1606;51.946;10.558;2023-05-07T05:04:46;12.40;99.90
3190;DHT22;1606;51.946;10.558;2023-05-07T05:07:14;12.50;99.90
3190;DHT22;1606;51.946;10.558;2023-05-07T05:09:43;12.40;99.90
3190;DHT22;1606;51.946;10.558;2023-05-07T05:12:11;12.40;99.90
3190;DHT22;1606;51.946;10.558;2023-05-07T05:14:39;12.30;99.90
3190;DHT22;1606;51.946;10.558;2023-05-07T05:17:07;12.50;99.90
3190;DHT22;1606;51.946;10.558;2023-05-07T05:19:35;12.60;99.90
3190;DHT22;1606;51.946;10.558;2023-05-07T05:22:02;12.40;99.90
3190;DHT22;1606;51.946;10.558;2023-05-07T05:24:30;12.40;99.90
3190;DHT22;1606;51.946;10.558;2023-05-07T05:26:59;12.40;99.90
3190;DHT22;1606;51.946;10.558;2023-05-07T05:29:27;12.50;99.90
3190;DHT22;1606;51.946;10.558;2023-05-07T05:31:55;12.50;99.90
3190;DHT22;1606;51.946;10.558;2023-05-07T05:34:23;12.30;99.90
3190;DHT22;1606;51.946;10.558;2023-05-07T05:36:51;12.20;99.90
3190;DHT22;1606;51.946;10.558;2023-05-07T05:39:19;12.40;99.90
3190;DHT22;1606;51.946;10.558;2023-05-07T05:41:47;12.70;99.90
3190;DHT22;1606;51.946;10.558;2023-05-07T05:44:17;12.70;99.90
3190;DHT22;1606;51.946;10.558;2023-05-07T05:46:44;12.70;99.90
3190;DHT22;1606;51.946;10.558;2023-05-07T05:49:12;12.80;99.90
3190;DHT22;1606;51.946;10.558;2023-05-07T05:51:40;12.80;99.90
3190;DHT22;1606;51.946;10.558;2023-05-07T05:54:08;12.80;99.90
3190;DHT22;1606;51.946;10.558;2023-05-07T05:56:36;12.80;99.90
3190;DHT22;1606;51.946;10.558;2023-05-07T05:59:04;12.60;99.90
3190;DHT22;1606;51.946;10.558;2023-05-07T06:01:34;12.70;99.90
3190;DHT22;1606;51.946;10.558;2023-05-07T06:04:02;12.70;99.90
3190;DHT22;1606;51.946;10.558;2023-05-07T06:06:30;12.90;99.90
3190;DHT22;1606;51.946;10.558;2023-05-07T06:08:58;13.00;99.90
3190;DHT22;1606;51.946;10.558;2023-05-07T06:11:26;12.90;99.90
3190;DHT22;1606;51.946;10.558;2023-05-07T06:13:54;12.80;99.90
3190;DHT22;1606;51.946;10.558;2023-05-07T06:16:22;13.00;99.90
3190;DHT22;1606;51.946;10.558;2023-05-07T06:18:51;12.90;99.90
3190;DHT22;1606;51.946;10.558;2023-05-07T06:21:19;13.00;99.90
3190;DHT22;1606;51.946;10.558;2023-05-07T06:23:46;13.10;99.90
3190;DHT22;1606;51.946;10.558;2023-05-07T06:26:14;13.30;99.90
3190;DHT22;1606;51.946;10.558;2023-05-07T06:28:42;13.30;99.90
3190;DHT22;1606;51.946;10.558;2023-05-07T06:31:14;13.10;99.90
3190;DHT22;1606;51.946;10.558;2023-05-07T06:33:43;13.10;99.90
3190;DHT22;1606;51.946;10.558;2023-05-07T06:36:12;13.20;99.90
3190;DHT22;1606;51.946;10.558;2023-05-07T06:38:40;13.30;99.90
3190;DHT22;1606;51.946;10.558;2023-05-07T06:41:08;13.40;99.90
3190;DHT22;1606;51.946;10.558;2023-05-07T06:43:36;13.40;99.90
3190;DHT22;1606;51.946;10.558;2023-05-07T06:46:04;13.40;99.90
3190;DHT22;1606;51.946;10.558;2023-05-07T06:48:32;13.50;99.90
3190;DHT22;1606;51.946;10.558;2023-05-07T06:51:00;13.50;99.90
3190;DHT22;1606;51.946;10.558;2023-05-07T06:53:29;13.60;99.90
3190;DHT22;1606;51.946;10.558;2023-05-07T06:55:57;13.60;99.90
3190;DHT22;1606;51.946;10.558;2023-05-07T06:58:25;13.50;99.90
3190;DHT22;1606;51.946;10.558;2023-05-07T07:00:52;13.30;99.90
3190;DHT22;1606;51.946;10.558;2023-05-07T07:03:20;13.30;99.90
3190;DHT22;1606;51.946;10.558;2023-05-07T07:05:51;13.40;99.90
3190;DHT22;1606;51.946;10.558;2023-05-07T07:08:19;13.40;99.90
3190;DHT22;1606;51.946;10.558;2023-05-07T07:10:49;13.50;99.90
3190;DHT22;1606;51.946;10.558;2023-05-07T07:13:17;13.60;99.90
3190;DHT22;1606;51.946;10.558;2023-05-07T07:15:45;13.60;99.90
3190;DHT22;1606;51.946;10.558;2023-05-07T07:18:13;13.30;99.90
3190;DHT22;1606;51.946;10.558;2023-05-07T07:20:41;13.30;99.90
3190;DHT22;1606;51.946;10.558;2023-05-07T07:23:11;13.30;99.90
3190;DHT22;1606;51.946;10.558;2023-05-07T07:25:38;13.40;99.90
3190;DHT22;1606;51.946;10.558;2023-05-07T07:28:08;13.30;99.90
3190;DHT22;1606;51.946;10.558;2023-05-07T07:30:37;13.50;99.90
3190;DHT22;1606;51.946;10.558;2023-05-07T07:33:05;13.50;99.90
3190;DHT22;1606;51.946;10.558;2023-05-07T07:35:34;13.50;99.90
3190;DHT22;1606;51.946;10.558;2023-05-07T07:38:01;13.50;99.90
3190;DHT22;1606;51.946;10.558;2023-05-07T07:40:29;13.50;99.90
3190;DHT22;1606;51.946;10.558;2023-05-07T07:42:57;13.70;99.90
3190;DHT22;1606;51.946;10.558;2023-05-07T07:45:26;13.60;99.90
3190;DHT22;1606;51.946;10.558;2023-05-07T07:47:54;13.70;99.90
3190;DHT22;1606;51.946;10.558;2023-05-07T07:50:22;13.80;99.90
3190;DHT22;1606;51.946;10.558;2023-05-07T07:53:08;13.70;99.90
3190;DHT22;1606;51.946;10.558;2023-05-07T07:55:38;13.80;99.90
3190;DHT22;1606;51.946;10.558;2023-05-07T07:58:06;13.80;99.90
3190;DHT22;1606;51.946;10.558;2023-05-07T08:00:35;13.90;99.90
3190;DHT22;1606;51.946;10.558;2023-05-07T08:03:03;14.00;99.90
3190;DHT22;1606;51.946;10.558;2023-05-07T08:05:31;14.00;99.90
3190;DHT22;1606;51.946;10.558;2023-05-07T08:07:59;13.70;99.90
3190;DHT22;1606;51.946;10.558;2023-05-07T08:10:27;13.80;99.90
3190;DHT22;1606;51.946;10.558;2023-05-07T08:12:55;13.90;99.90
3190;DHT22;1606;51.946;10.558;2023-05-07T08:15:23;13.70;99.90
3190;DHT22;1606;51.946;10.558;2023-05-07T08:17:52;13.90;99.90
3190;DHT22;1606;51.946;10.558;2023-05-07T08:20:20;14.10;99.90
3190;DHT22;1606;51.946;10.558;2023-05-07T08:22:48;14.10;99.90
3190;DHT22;1606;51.946;10.558;2023-05-07T08:25:16;14.10;99.90
3190;DHT22;1606;51.946;10.558;2023-05-07T08:27:43;14.00;99.90
3190;DHT22;1606;51.946;10.558;2023-05-07T08:30:13;14.10;99.90
3190;DHT22;1606;51.946;10.558;2023-05-07T08:32:40;14.10;99.90
3190;DHT22;1606;51.946;10.558;2023-05-07T08:35:10;14.10;99.90
3190;DHT22;1606;51.946;10.558;2023-05-07T08:37:38;14.10;99.90
3190;DHT22;1606;51.946;10.558;2023-05-07T08:40:06;14.00;99.90
3190;DHT22;1606;51.946;10.558;2023-05-07T08:42:40;14.10;99.90
3190;DHT22;1606;51.946;10.558;2023-05-07T08:45:09;14.10;99.90
3190;DHT22;1606;51.946;10.558;2023-05-07T08:47:42;14.10;99.90
3190;DHT22;1606;51.946;10.558;2023-05-07T08:50:12;14.10;99.90
3190;DHT22;1606;51.946;10.558;2023-05-07T08:52:40;14.20;99.90
3190;DHT22;1606;51.946;10.558;2023-05-07T08:55:09;14.20;99.90
3190;DHT22;1606;51.946;10.558;2023-05-07T08:57:37;14.20;99.90
3190;DHT22;1606;51.946;10.558;2023-05-07T09:00:06;14.10;99.90
3190;DHT22;1606;51.946;10.558;2023-05-07T09:02:35;14.10;99.90
3190;DHT22;1606;51.946;10.558;2023-05-07T09:05:03;14.20;99.90
3190;DHT22;1606;51.946;10.558;2023-05-07T09:07:32;14.10;99.90
3190;DHT22;1606;51.946;10.558;2023-05-07T09:10:02;14.20;99.90
3190;DHT22;1606;51.946;10.558;2023-05-07T09:12:30;14.30;99.90
3190;DHT22;1606;51.946;10.558;2023-05-07T09:14:59;14.40;99.90
3190;DHT22;1606;51.946;10.558;2023-05-07T09:17:27;14.30;99.90
3190;DHT22;1606;51.946;10.558;2023-05-07T09:19:55;14.30;99.90
3190;DHT22;1606;51.946;10.558;2023-05-07T09:22:23;14.10;99.90
3190;DHT22;1606;51.946;10.558;2023-05-07T09:24:52;14.20;99.90
3190;DHT22;1606;51.946;10.558;2023-05-07T09:27:20;14.40;99.90
3190;DHT22;1606;51.946;10.558;2023-05-07T09:29:48;14.50;99.90
3190;DHT22;1606;51.946;10.558;2023-05-07T09:32:15;14.60;99.90
3190;DHT22;1606;51.946;10.558;2023-05-07T09:34:43;14.50;99.90
3190;DHT22;1606;51.946;10.558;2023-05-07T09:37:13;14.60;99.90
3190;DHT22;1606;51.946;10.558;2023-05-07T09:39:41;14.70;99.90
3190;DHT22;1606;51.946;10.558;2023-05-07T09:42:11;15.00;99.90
3190;DHT22;1606;51.946;10.558;2023-05-07T09:44:42;14.80;99.90
3190;DHT22;1606;51.946;10.558;2023-05-07T09:47:11;14.80;99.90
3190;DHT22;1606;51.946;10.558;2023-05-07T09:49:42;14.80;99.90
3190;DHT22;1606;51.946;10.558;2023-05-07T09:52:13;14.80;99.90
3190;DHT22;1606;51.946;10.558;2023-05-07T09:54:41;15.00;99.90
3190;DHT22;1606;51.946;10.558;2023-05-07T09:57:12;15.10;99.90
3190;DHT22;1606;51.946;10.558;2023-05-07T09:59:42;15.00;99.90
3190;DHT22;1606;51.946;10.558;2023-05-07T10:02:11;15.00;99.90
3190;DHT22;1606;51.946;10.558;2023-05-07T10:04:39;15.10;99.90
3190;DHT22;1606;51.946;10.558;2023-05-07T10:07:08;15.00;99.90
3190;DHT22;1606;51.946;10.558;2023-05-07T10:09:37;15.10;99.90
3190;DHT22;1606;51.946;10.558;2023-05-07T10:12:09;15.00;99.90
3190;DHT22;1606;51.946;10.558;2023-05-07T10:14:38;15.10;99.90
3190;DHT22;1606;51.946;10.558;2023-05-07T10:17:07;15.10;99.90
3190;DHT22;1606;51.946;10.558;2023-05-07T10:19:36;15.10;99.90
3190;DHT22;1606;51.946;10.558;2023-05-07T10:22:06;15.10;99.90
3190;DHT22;1606;51.946;10.558;2023-05-07T10:24:36;15.10;99.90
3190;DHT22;1606;51.946;10.558;2023-05-07T10:27:07;15.20;99.90
3190;DHT22;1606;51.946;10.558;2023-05-07T10:29:45;15.20;99.90
3190;DHT22;1606;51.946;10.558;2023-05-07T10:32:35;15.30;99.90
3190;DHT22;1606;51.946;10.558;2023-05-07T10:35:09;15.30;99.90
3190;DHT22;1606;51.946;10.558;2023-05-07T10:37:38;15.50;99.90
3190;DHT22;1606;51.946;10.558;2023-05-07T10:40:07;15.40;99.90
3190;DHT22;1606;51.946;10.558;2023-05-07T10:42:36;15.20;99.90
3190;DHT22;1606;51.946;10.558;2023-05-07T10:45:14;15.10;99.90
3190;DHT22;1606;51.946;10.558;2023-05-07T10:48:06;15.30;99.90
3190;DHT22;1606;51.946;10.558;2023-05-07T10:51:19;15.30;99.90
3190;DHT22;1606;51.946;10.558;2023-05-07T10:53:47;15.50;99.90
3190;DHT22;1606;51.946;10.558;2023-05-07T10:56:25;15.70;99.90
3190;DHT22;1606;51.946;10.558;2023-05-07T10:59:33;15.80;99.90
3190;DHT22;1606;51.946;10.558;2023-05-07T11:02:03;15.80;99.90
3190;DHT22;1606;51.946;10.558;2023-05-07T11:04:33;15.70;99.90
3190;DHT22;1606;51.946;10.558;2023-05-07T11:07:24;15.70;99.90
3190;DHT22;1606;51.946;10.558;2023-05-07T11:10:03;15.90;99.90
3190;DHT22;1606;51.946;10.558;2023-05-07T11:12:49;16.00;99.90
3190;DHT22;1606;51.946;10.558;2023-05-07T11:15:38;16.20;99.90
3190;DHT22;1606;51.946;10.558;2023-05-07T11:18:07;16.10;99.90
3190;DHT22;1606;51.946;10.558;2023-05-07T11:20:56;16.10;99.90
3190;DHT22;1606;51.946;10.558;2023-05-07T11:26:45;16.10;99.90
3190;DHT22;1606;51.946;10.558;2023-05-07T11:29:15;16.20;99.90
3190;DHT22;1606;51.946;10.558;2023-05-07T11:31:50;16.20;99.90
3190;DHT22;1606;51.946;10.558;2023-05-07T11:34:24;16.20;99.90
3190;DHT22;1606;51.946;10.558;2023-05-07T11:36:52;16.40;99.90
3190;DHT22;1606;51.946;10.558;2023-05-07T11:39:28;16.60;99.90
3190;DHT22;1606;51.946;10.558;2023-05-07T11:41:56;16.40;99.90
3190;DHT22;1606;51.946;10.558;2023-05-07T11:44:24;16.40;99.90
3190;DHT22;1606;51.946;10.558;2023-05-07T11:46:52;16.40;99.90
3190;DHT22;1606;51.946;10.558;2023-05-07T11:49:20;16.50;99.90
3190;DHT22;1606;51.946;10.558;2023-05-07T11:51:49;16.60;99.90
3190;DHT22;1606;51.946;10.558;2023-05-07T11:54:17;16.70;99.90
3190;DHT22;1606;51.946;10.558;2023-05-07T11:56:45;17.00;99.90
3190;DHT22;1606;51.946;10.558;2023-05-07T11:59:17;17.10;99.90
3190;DHT22;1606;51.946;10.558;2023-05-07T12:01:46;17.30;99.90
3190;DHT22;1606;51.946;10.558;2023-05-07T12:04:19;17.60;99.90
3190;DHT22;1606;51.946;10.558;2023-05-07T12:06:53;17.60;99.90
3190;DHT22;1606;51.946;10.558;2023-05-07T12:09:22;17.50;99.90
3190;DHT22;1606;51.946;10.558;2023-05-07T12:11:51;17.30;99.90
3190;DHT22;1606;51.946;10.558;2023-05-07T12:14:19;17.20;99.90
3190;DHT22;1606;51.946;10.558;2023-05-07T12:16:47;17.10;99.90
3190;DHT22;1606;51.946;10.558;2023-05-07T12:19:15;17.10;99.90
3190;DHT22;1606;51.946;10.558;2023-05-07T12:21:43;17.20;99.90
3190;DHT22;1606;51.946;10.558;2023-05-07T12:24:14;17.30;99.90
3190;DHT22;1606;51.946;10.558;2023-05-07T12:26:43;17.50;99.90
3190;DHT22;1606;51.946;10.558;2023-05-07T12:29:11;17.40;99.90
3190;DHT22;1606;51.946;10.558;2023-05-07T12:31:40;17.30;99.90
3190;DHT22;1606;51.946;10.558;2023-05-07T12:34:09;17.50;99.90
3190;DHT22;1606;51.946;10.558;2023-05-07T12:36:38;17.60;99.90
3190;DHT22;1606;51.946;10.558;2023-05-07T12:39:07;17.80;99.90
3190;DHT22;1606;51.946;10.558;2023-05-07T12:41:55;17.60;99.90
3190;DHT22;1606;51.946;10.558;2023-05-07T12:44:23;17.40;99.90
3190;DHT22;1606;51.946;10.558;2023-05-07T12:46:51;17.30;99.90
3190;DHT22;1606;51.946;10.558;2023-05-07T12:49:19;17.20;99.90
3190;DHT22;1606;51.946;10.558;2023-05-07T12:51:50;17.00;99.90
3190;DHT22;1606;51.946;10.558;2023-05-07T12:54:28;16.90;99.90
3190;DHT22;1606;51.946;10.558;2023-05-07T12:57:02;17.00;99.90
3190;DHT22;1606;51.946;10.558;2023-05-07T12:59:34;16.90;99.90
3190;DHT22;1606;51.946;10.558;2023-05-07T13:02:02;17.00;99.90
3190;DHT22;1606;51.946;10.558;2023-05-07T13:04:30;17.10;99.90
3190;DHT22;1606;51.946;10.558;2023-05-07T13:06:58;17.00;99.90
3190;DHT22;1606;51.946;10.558;2023-05-07T13:09:26;16.80;99.90
3190;DHT22;1606;51.946;10.558;2023-05-07T13:11:55;16.70;99.90
3190;DHT22;1606;51.946;10.558;2023-05-07T13:14:24;16.60;99.90
3190;DHT22;1606;51.946;10.558;2023-05-07T13:16:52;16.60;99.90
3190;DHT22;1606;51.946;10.558;2023-05-07T13:19:20;16.60;99.90
3190;DHT22;1606;51.946;10.558;2023-05-07T13:21:48;16.70;99.90
3190;DHT22;1606;51.946;10.558;2023-05-07T13:24:16;16.40;99.90
3190;DHT22;1606;51.946;10.558;2023-05-07T13:26:44;16.30;99.90
3190;DHT22;1606;51.946;10.558;2023-05-07T13:29:12;16.40;99.90
3190;DHT22;1606;51.946;10.558;2023-05-07T13:31:41;16.30;99.90
3190;DHT22;1606;51.946;10.558;2023-05-07T13:34:10;16.20;99.90
3190;DHT22;1606;51.946;10.558;2023-05-07T13:36:38;16.30;99.90
3190;DHT22;1606;51.946;10.558;2023-05-07T13:39:08;16.40;99.90
3190;DHT22;1606;51.946;10.558;2023-05-07T13:41:36;16.50;99.90
3190;DHT22;1606;51.946;10.558;2023-05-07T13:44:04;16.60;99.90
3190;DHT22;1606;51.946;10.558;2023-05-07T13:46:31;16.60;99.90
3190;DHT22;1606;51.946;10.558;2023-05-07T13:49:01;16.50;99.90
3190;DHT22;1606;51.946;10.558;2023-05-07T13:51:29;16.70;99.90
3190;DHT22;1606;51.946;10.558;2023-05-07T13:53:56;16.80;99.90
3190;DHT22;1606;51.946;10.558;2023-05-07T13:56:25;17.00;99.90
3190;DHT22;1606;51.946;10.558;2023-05-07T13:58:52;17.00;99.90
3190;DHT22;1606;51.946;10.558;2023-05-07T14:01:26;17.00;99.90
3190;DHT22;1606;51.946;10.558;2023-05-07T14:03:55;16.90;99.90
3190;DHT22;1606;51.946;10.558;2023-05-07T14:06:25;16.90;99.90
3190;DHT22;1606;51.946;10.558;2023-05-07T14:08:53;17.00;99.90
3190;DHT22;1606;51.946;10.558;2023-05-07T14:11:20;17.20;99.90
3190;DHT22;1606;51.946;10.558;2023-05-07T14:13:48;17.50;99.90
3190;DHT22;1606;51.946;10.558;2023-05-07T14:16:16;17.50;99.90
3190;DHT22;1606;51.946;10.558;2023-05-07T14:18:44;17.60;99.90
3190;DHT22;1606;51.946;10.558;2023-05-07T14:21:12;17.80;99.90
3190;DHT22;1606;51.946;10.558;2023-05-07T14:23:41;18.00;99.90
3190;DHT22;1606;51.946;10.558;2023-05-07T14:26:09;17.90;99.90
3190;DHT22;1606;51.946;10.558;2023-05-07T14:28:37;17.60;99.90
3190;DHT22;1606;51.946;10.558;2023-05-07T14:31:06;17.60;99.90
3190;DHT22;1606;51.946;10.558;2023-05-07T14:33:34;17.80;99.90
3190;DHT22;1606;51.946;10.558;2023-05-07T14:36:01;17.90;99.90
3190;DHT22;1606;51.946;10.558;2023-05-07T14:38:30;17.70;99.90
3190;DHT22;1606;51.946;10.558;2023-05-07T14:41:00;17.70;99.90
3190;DHT22;1606;51.946;10.558;2023-05-07T14:43:28;17.80;99.90
3190;DHT22;1606;51.946;10.558;2023-05-07T14:45:56;17.70;99.90
3190;DHT22;1606;51.946;10.558;2023-05-07T14:48:24;17.60;99.70
3190;DHT22;1606;51.946;10.558;2023-05-07T14:50:51;17.30;99.50
3190;DHT22;1606;51.946;10.558;2023-05-07T14:53:19;17.20;99.90
3190;DHT22;1606;51.946;10.558;2023-05-07T14:55:49;17.20;99.90
3190;DHT22;1606;51.946;10.558;2023-05-07T14:58:18;17.10;99.90
3190;DHT22;1606;51.946;10.558;2023-05-07T15:00:46;17.20;99.90
3190;DHT22;1606;51.946;10.558;2023-05-07T15:03:14;17.60;99.80
3190;DHT22;1606;51.946;10.558;2023-05-07T15:05:42;17.50;99.70
3190;DHT22;1606;51.946;10.558;2023-05-07T15:08:10;17.50;99.50
3190;DHT22;1606;51.946;10.558;2023-05-07T15:10:38;17.50;99.90
3190;DHT22;1606;51.946;10.558;2023-05-07T15:13:08;17.50;99.60
3190;DHT22;1606;51.946;10.558;2023-05-07T15:15:43;17.40;99.70
3190;DHT22;1606;51.946;10.558;2023-05-07T15:18:11;17.40;99.90
3190;DHT22;1606;51.946;10.558;2023-05-07T15:20:40;17.60;99.90
3190;DHT22;1606;51.946;10.558;2023-05-07T15:23:08;17.70;99.60
3190;DHT22;1606;51.946;10.558;2023-05-07T15:25:38;17.70;99.40
3190;DHT22;1606;51.946;10.558;2023-05-07T15:28:06;17.60;98.70
3190;DHT22;1606;51.946;10.558;2023-05-07T15:30:34;17.40;99.20
3190;DHT22;1606;51.946;10.558;2023-05-07T15:33:03;17.50;99.70
3190;DHT22;1606;51.946;10.558;2023-05-07T15:35:32;17.30;99.30
3190;DHT22;1606;51.946;10.558;2023-05-07T15:38:00;17.20;99.70
3190;DHT22;1606;51.946;10.558;2023-05-07T15:40:30;17.20;99.90
3190;DHT22;1606;51.946;10.558;2023-05-07T15:42:57;17.30;99.70
3190;DHT22;1606;51.946;10.558;2023-05-07T15:45:25;17.50;99.10
3190;DHT22;1606;51.946;10.558;2023-05-07T15:47:53;17.60;99.10
3190;DHT22;1606;51.946;10.558;2023-05-07T15:50:22;17.40;98.30
3190;DHT22;1606;51.946;10.558;2023-05-07T15:52:50;17.10;99.90
3190;DHT22;1606;51.946;10.558;2023-05-07T15:55:18;17.10;99.80
3190;DHT22;1606;51.946;10.558;2023-05-07T15:57:46;17.00;98.80
3190;DHT22;1606;51.946;10.558;2023-05-07T16:00:14;17.00;99.70